sensor_id;sensor_type;location;lat;lon;timestamp;P1;durP1;ratioP1;P2;durP2;ratioP2
70078;SDS011;57451;52.496;13.456;2023-06-10T00:00:08;9.73;;;4.00;;
70078;SDS011;57451;52.496;13.456;2023-06-10T00:02:40;12.02;;;4.80;;
70078;SDS011;57451;52.496;13.456;2023-06-10T00:05:09;9.20;;;4.90;;
70078;SDS011;57451;52.496;13.456;2023-06-10T00:07:38;7.53;;;4.25;;
70078;SDS011;57451;52.496;13.456;2023-06-10T00:10:06;10.90;;;4.47;;
70078;SDS011;57451;52.496;13.456;2023-06-10T00:12:37;9.50;;;4.57;;
70078;SDS011;57451;52.496;13.456;2023-06-10T00:15:06;11.25;;;4.50;;
70078;SDS011;57451;52.496;13.456;2023-06-10T00:17:35;11.33;;;4.50;;
70078;SDS011;57451;52.496;13.456;2023-06-10T00:20:09;7.68;;;3.72;;
70078;SDS011;57451;52.496;13.456;2023-06-10T00:22:39;8.65;;;4.47;;
70078;SDS011;57451;52.496;13.456;2023-06-10T00:25:09;8.68;;;4.30;;
70078;SDS011;57451;52.496;13.456;2023-06-10T00:27:39;11.00;;;4.28;;
70078;SDS011;57451;52.496;13.456;2023-06-10T00:30:07;9.27;;;4.20;;
70078;SDS011;57451;52.496;13.456;2023-06-10T00:32:37;9.30;;;4.55;;
70078;SDS011;57451;52.496;13.456;2023-06-10T00:35:05;10.02;;;4.10;;
70078;SDS011;57451;52.496;13.456;2023-06-10T00:37:36;9.05;;;4.15;;
70078;SDS011;57451;52.496;13.456;2023-06-10T00:40:04;11.80;;;4.20;;
70078;SDS011;57451;52.496;13.456;2023-06-10T00:42:32;11.57;;;4.50;;
70078;SDS011;57451;52.496;13.456;2023-06-10T00:45:00;8.13;;;4.28;;
70078;SDS011;57451;52.496;13.456;2023-06-10T00:47:28;9.82;;;4.13;;
70078;SDS011;57451;52.496;13.456;2023-06-10T00:49:57;9.90;;;4.03;;
70078;SDS011;57451;52.496;13.456;2023-06-10T00:52:26;10.90;;;4.45;;
70078;SDS011;57451;52.496;13.456;2023-06-10T00:54:58;8.27;;;4.33;;
70078;SDS011;57451;52.496;13.456;2023-06-10T00:57:27;12.50;;;4.40;;
70078;SDS011;57451;52.496;13.456;2023-06-10T00:59:56;9.63;;;4.20;;
70078;SDS011;57451;52.496;13.456;2023-06-10T01:02:24;11.35;;;4.13;;
70078;SDS011;57451;52.496;13.456;2023-06-10T01:04:52;11.77;;;4.72;;
70078;SDS011;57451;52.496;13.456;2023-06-10T01:07:22;11.70;;;4.30;;
70078;SDS011;57451;52.496;13.456;2023-06-10T01:09:54;8.25;;;4.07;;
70078;SDS011;57451;52.496;13.456;2023-06-10T01:12:29;11.55;;;4.45;;
70078;SDS011;57451;52.496;13.456;2023-06-10T01:15:00;9.75;;;3.85;;
70078;SDS011;57451;52.496;13.456;2023-06-10T01:17:29;9.73;;;4.18;;
70078;SDS011;57451;52.496;13.456;2023-06-10T01:19:57;10.13;;;4.60;;
70078;SDS011;57451;52.496;13.456;2023-06-10T01:22:27;10.48;;;3.90;;
70078;SDS011;57451;52.496;13.456;2023-06-10T01:25:04;10.90;;;4.35;;
70078;SDS011;57451;52.496;13.456;2023-06-10T01:27:35;8.85;;;3.80;;
70078;SDS011;57451;52.496;13.456;2023-06-10T01:30:08;11.18;;;4.43;;
70078;SDS011;57451;52.496;13.456;2023-06-10T01:32:44;13.20;;;4.10;;
70078;SDS011;57451;52.496;13.456;2023-06-10T01:35:15;8.40;;;4.18;;
70078;SDS011;57451;52.496;13.456;2023-06-10T01:37:46;10.00;;;4.50;;
70078;SDS011;57451;52.496;13.456;2023-06-10T01:40:16;10.68;;;4.05;;
70078;SDS011;57451;52.496;13.456;2023-06-10T01:42:44;10.07;;;4.18;;
70078;SDS011;57451;52.496;13.456;2023-06-10T01:45:12;10.47;;;4.33;;
70078;SDS011;57451;52.496;13.456;2023-06-10T01:47:40;9.52;;;4.15;;
70078;SDS011;57451;52.496;13.456;2023-06-10T01:50:08;12.52;;;4.30;;
70078;SDS011;57451;52.496;13.456;2023-06-10T01:52:36;9.77;;;4.40;;
70078;SDS011;57451;52.496;13.456;2023-06-10T01:55:06;7.90;;;4.15;;
70078;SDS011;57451;52.496;13.456;2023-06-10T01:57:34;11.73;;;4.40;;
70078;SDS011;57451;52.496;13.456;2023-06-10T02:00:02;10.20;;;4.50;;
70078;SDS011;57451;52.496;13.456;2023-06-10T02:02:40;8.73;;;4.10;;
70078;SDS011;57451;52.496;13.456;2023-06-10T02:05:08;12.43;;;4.55;;
70078;SDS011;57451;52.496;13.456;2023-06-10T02:07:37;10.75;;;4.43;;
70078;SDS011;57451;52.496;13.456;2023-06-10T02:10:07;11.70;;;4.40;;
70078;SDS011;57451;52.496;13.456;2023-06-10T02:12:35;9.02;;;4.43;;
70078;SDS011;57451;52.496;13.456;2023-06-10T02:15:03;11.02;;;4.30;;
70078;SDS011;57451;52.496;13.456;2023-06-10T02:17:32;11.90;;;4.63;;
70078;SDS011;57451;52.496;13.456;2023-06-10T02:20:00;10.48;;;4.30;;
70078;SDS011;57451;52.496;13.456;2023-06-10T02:22:30;9.87;;;4.27;;
70078;SDS011;57451;52.496;13.456;2023-06-10T02:24:59;11.90;;;4.35;;
70078;SDS011;57451;52.496;13.456;2023-06-10T02:27:28;12.38;;;4.70;;
70078;SDS011;57451;52.496;13.456;2023-06-10T02:29:57;10.73;;;4.22;;
70078;SDS011;57451;52.496;13.456;2023-06-10T02:32:25;12.10;;;4.38;;
70078;SDS011;57451;52.496;13.456;2023-06-10T02:34:54;13.23;;;4.53;;
70078;SDS011;57451;52.496;13.456;2023-06-10T02:37:24;8.90;;;4.70;;
70078;SDS011;57451;52.496;13.456;2023-06-10T02:39:52;9.18;;;4.13;;
70078;SDS011;57451;52.496;13.456;2023-06-10T02:42:20;8.57;;;3.97;;
70078;SDS011;57451;52.496;13.456;2023-06-10T02:44:51;10.90;;;4.60;;
70078;SDS011;57451;52.496;13.456;2023-06-10T02:47:32;7.97;;;4.40;;
70078;SDS011;57451;52.496;13.456;2023-06-10T02:50:01;9.35;;;4.20;;
70078;SDS011;57451;52.496;13.456;2023-06-10T02:52:34;10.68;;;4.78;;
70078;SDS011;57451;52.496;13.456;2023-06-10T02:55:02;9.95;;;4.50;;
70078;SDS011;57451;52.496;13.456;2023-06-10T02:57:30;12.10;;;4.63;;
70078;SDS011;57451;52.496;13.456;2023-06-10T03:00:00;10.17;;;4.47;;
70078;SDS011;57451;52.496;13.456;2023-06-10T03:02:30;14.20;;;4.50;;
70078;SDS011;57451;52.496;13.456;2023-06-10T03:04:58;11.95;;;4.70;;
70078;SDS011;57451;52.496;13.456;2023-06-10T03:07:26;14.60;;;4.75;;
70078;SDS011;57451;52.496;13.456;2023-06-10T03:09:54;10.43;;;4.55;;
70078;SDS011;57451;52.496;13.456;2023-06-10T03:12:22;9.47;;;4.67;;
70078;SDS011;57451;52.496;13.456;2023-06-10T03:14:49;11.55;;;4.88;;
70078;SDS011;57451;52.496;13.456;2023-06-10T03:17:19;12.70;;;4.47;;
70078;SDS011;57451;52.496;13.456;2023-06-10T03:19:47;10.40;;;4.70;;
70078;SDS011;57451;52.496;13.456;2023-06-10T03:22:16;9.77;;;4.82;;
70078;SDS011;57451;52.496;13.456;2023-06-10T03:24:54;10.13;;;4.90;;
70078;SDS011;57451;52.496;13.456;2023-06-10T03:27:25;10.15;;;4.55;;
70078;SDS011;57451;52.496;13.456;2023-06-10T03:29:58;9.80;;;4.90;;
70078;SDS011;57451;52.496;13.456;2023-06-10T03:32:28;10.55;;;4.78;;
70078;SDS011;57451;52.496;13.456;2023-06-10T03:34:56;9.02;;;4.40;;
70078;SDS011;57451;52.496;13.456;2023-06-10T03:37:27;9.77;;;4.50;;
70078;SDS011;57451;52.496;13.456;2023-06-10T03:39:55;10.02;;;4.85;;
70078;SDS011;57451;52.496;13.456;2023-06-10T03:42:23;8.88;;;4.90;;
70078;SDS011;57451;52.496;13.456;2023-06-10T03:44:51;10.63;;;4.45;;
70078;SDS011;57451;52.496;13.456;2023-06-10T03:47:18;9.73;;;5.18;;
70078;SDS011;57451;52.496;13.456;2023-06-10T03:49:49;8.67;;;4.70;;
70078;SDS011;57451;52.496;13.456;2023-06-10T03:52:16;9.73;;;5.05;;
70078;SDS011;57451;52.496;13.456;2023-06-10T03:54:45;10.48;;;4.53;;
70078;SDS011;57451;52.496;13.456;2023-06-10T03:57:12;13.65;;;5.43;;
70078;SDS011;57451;52.496;13.456;2023-06-10T03:59:40;10.57;;;5.00;;
70078;SDS011;57451;52.496;13.456;2023-06-10T04:02:08;10.10;;;4.40;;
70078;SDS011;57451;52.496;13.456;2023-06-10T04:04:36;11.77;;;4.78;;
70078;SDS011;57451;52.496;13.456;2023-06-10T04:07:06;9.07;;;4.53;;
70078;SDS011;57451;52.496;13.456;2023-06-10T04:09:35;10.25;;;5.15;;
70078;SDS011;57451;52.496;13.456;2023-06-10T04:12:03;12.40;;;5.28;;
70078;SDS011;57451;52.496;13.456;2023-06-10T04:14:35;10.57;;;4.80;;
70078;SDS011;57451;52.496;13.456;2023-06-10T04:17:05;9.07;;;4.70;;
70078;SDS011;57451;52.496;13.456;2023-06-10T04:19:34;10.40;;;5.30;;
70078;SDS011;57451;52.496;13.456;2023-06-10T04:22:02;13.70;;;5.68;;
70078;SDS011;57451;52.496;13.456;2023-06-10T04:24:33;10.55;;;5.60;;
70078;SDS011;57451;52.496;13.456;2023-06-10T04:27:01;9.83;;;5.17;;
70078;SDS011;57451;52.496;13.456;2023-06-10T04:29:30;11.88;;;5.57;;
70078;SDS011;57451;52.496;13.456;2023-06-10T04:31:58;10.57;;;5.22;;
70078;SDS011;57451;52.496;13.456;2023-06-10T04:34:26;10.15;;;5.18;;
70078;SDS011;57451;52.496;13.456;2023-06-10T04:36:54;9.95;;;5.10;;
70078;SDS011;57451;52.496;13.456;2023-06-10T04:39:22;11.97;;;5.67;;
70078;SDS011;57451;52.496;13.456;2023-06-10T04:41:51;11.38;;;5.35;;
70078;SDS011;57451;52.496;13.456;2023-06-10T04:44:19;11.40;;;5.40;;
70078;SDS011;57451;52.496;13.456;2023-06-10T04:46:48;12.07;;;5.45;;
70078;SDS011;57451;52.496;13.456;2023-06-10T04:49:17;15.93;;;6.18;;
70078;SDS011;57451;52.496;13.456;2023-06-10T04:51:45;11.33;;;5.90;;
70078;SDS011;57451;52.496;13.456;2023-06-10T04:54:13;10.00;;;5.40;;
70078;SDS011;57451;52.496;13.456;2023-06-10T04:56:41;11.85;;;5.45;;
70078;SDS011;57451;52.496;13.456;2023-06-10T04:59:10;10.65;;;5.13;;
70078;SDS011;57451;52.496;13.456;2023-06-10T05:01:38;13.52;;;5.78;;
70078;SDS011;57451;52.496;13.456;2023-06-10T05:04:05;15.50;;;5.87;;
70078;SDS011;57451;52.496;13.456;2023-06-10T05:06:33;13.63;;;5.40;;
70078;SDS011;57451;52.496;13.456;2023-06-10T05:09:02;10.70;;;5.45;;
70078;SDS011;57451;52.496;13.456;2023-06-10T05:11:30;12.40;;;5.65;;
70078;SDS011;57451;52.496;13.456;2023-06-10T05:13:58;12.10;;;5.95;;
70078;SDS011;57451;52.496;13.456;2023-06-10T05:16:27;14.60;;;6.10;;
70078;SDS011;57451;52.496;13.456;2023-06-10T05:18:55;10.55;;;5.72;;
70078;SDS011;57451;52.496;13.456;2023-06-10T05:24:12;10.65;;;5.88;;
70078;SDS011;57451;52.496;13.456;2023-06-10T05:26:40;11.13;;;5.97;;
70078;SDS011;57451;52.496;13.456;2023-06-10T05:29:08;9.43;;;5.47;;
70078;SDS011;57451;52.496;13.456;2023-06-10T05:31:40;11.60;;;6.07;;
70078;SDS011;57451;52.496;13.456;2023-06-10T05:34:07;11.38;;;5.70;;
70078;SDS011;57451;52.496;13.456;2023-06-10T05:36:35;12.13;;;5.93;;
70078;SDS011;57451;52.496;13.456;2023-06-10T05:39:03;11.02;;;5.75;;
70078;SDS011;57451;52.496;13.456;2023-06-10T05:41:31;8.50;;;5.37;;
70078;SDS011;57451;52.496;13.456;2023-06-10T05:43:58;11.90;;;5.75;;
70078;SDS011;57451;52.496;13.456;2023-06-10T05:46:26;10.60;;;5.38;;
70078;SDS011;57451;52.496;13.456;2023-06-10T05:48:55;11.70;;;5.88;;
70078;SDS011;57451;52.496;13.456;2023-06-10T05:51:22;12.50;;;6.30;;
70078;SDS011;57451;52.496;13.456;2023-06-10T05:53:50;11.00;;;5.70;;
70078;SDS011;57451;52.496;13.456;2023-06-10T05:56:17;10.10;;;5.85;;
70078;SDS011;57451;52.496;13.456;2023-06-10T05:58:45;11.90;;;6.13;;
70078;SDS011;57451;52.496;13.456;2023-06-10T06:01:17;10.40;;;6.55;;
70078;SDS011;57451;52.496;13.456;2023-06-10T06:03:45;13.35;;;6.80;;
70078;SDS011;57451;52.496;13.456;2023-06-10T06:06:14;9.73;;;6.17;;
70078;SDS011;57451;52.496;13.456;2023-06-10T06:08:42;10.63;;;5.95;;
70078;SDS011;57451;52.496;13.456;2023-06-10T06:11:09;13.20;;;6.65;;
70078;SDS011;57451;52.496;13.456;2023-06-10T06:13:37;11.55;;;6.25;;
70078;SDS011;57451;52.496;13.456;2023-06-10T06:16:04;14.90;;;6.80;;
70078;SDS011;57451;52.496;13.456;2023-06-10T06:18:32;12.20;;;6.50;;
70078;SDS011;57451;52.496;13.456;2023-06-10T06:20:59;12.32;;;6.57;;
70078;SDS011;57451;52.496;13.456;2023-06-10T06:23:28;10.57;;;6.10;;
70078;SDS011;57451;52.496;13.456;2023-06-10T06:25:57;11.68;;;7.05;;
70078;SDS011;57451;52.496;13.456;2023-06-10T06:28:24;10.45;;;5.75;;
70078;SDS011;57451;52.496;13.456;2023-06-10T06:30:56;11.23;;;6.77;;
70078;SDS011;57451;52.496;13.456;2023-06-10T06:33:24;10.55;;;6.57;;
70078;SDS011;57451;52.496;13.456;2023-06-10T06:35:53;10.95;;;6.07;;
70078;SDS011;57451;52.496;13.456;2023-06-10T06:38:20;11.65;;;6.72;;
70078;SDS011;57451;52.496;13.456;2023-06-10T06:40:49;13.50;;;6.65;;
70078;SDS011;57451;52.496;13.456;2023-06-10T06:43:17;9.23;;;6.30;;
70078;SDS011;57451;52.496;13.456;2023-06-10T06:46:12;12.38;;;6.45;;
70078;SDS011;57451;52.496;13.456;2023-06-10T06:48:44;11.40;;;6.53;;
70078;SDS011;57451;52.496;13.456;2023-06-10T06:51:11;12.35;;;6.43;;
70078;SDS011;57451;52.496;13.456;2023-06-10T06:53:39;11.15;;;7.18;;
70078;SDS011;57451;52.496;13.456;2023-06-10T06:56:12;12.27;;;7.13;;
70078;SDS011;57451;52.496;13.456;2023-06-10T06:58:41;12.27;;;7.05;;
70078;SDS011;57451;52.496;13.456;2023-06-10T07:01:08;12.90;;;7.38;;
70078;SDS011;57451;52.496;13.456;2023-06-10T07:03:36;15.48;;;7.35;;
70078;SDS011;57451;52.496;13.456;2023-06-10T07:06:04;11.27;;;6.13;;
70078;SDS011;57451;52.496;13.456;2023-06-10T07:08:32;10.93;;;6.17;;
70078;SDS011;57451;52.496;13.456;2023-06-10T07:10:59;12.30;;;7.03;;
70078;SDS011;57451;52.496;13.456;2023-06-10T07:13:28;10.55;;;6.65;;
70078;SDS011;57451;52.496;13.456;2023-06-10T07:15:56;12.35;;;7.13;;
70078;SDS011;57451;52.496;13.456;2023-06-10T07:18:23;10.00;;;6.43;;
70078;SDS011;57451;52.496;13.456;2023-06-10T07:20:51;11.57;;;7.40;;
70078;SDS011;57451;52.496;13.456;2023-06-10T07:23:18;10.43;;;6.80;;
70078;SDS011;57451;52.496;13.456;2023-06-10T07:25:46;14.18;;;7.13;;
70078;SDS011;57451;52.496;13.456;2023-06-10T07:28:21;12.55;;;7.18;;
70078;SDS011;57451;52.496;13.456;2023-06-10T07:30:50;12.27;;;7.20;;
70078;SDS011;57451;52.496;13.456;2023-06-10T07:33:17;10.67;;;7.10;;
70078;SDS011;57451;52.496;13.456;2023-06-10T07:35:45;11.20;;;7.35;;
70078;SDS011;57451;52.496;13.456;2023-06-10T07:38:13;11.57;;;7.03;;
70078;SDS011;57451;52.496;13.456;2023-06-10T07:40:40;12.77;;;6.97;;
70078;SDS011;57451;52.496;13.456;2023-06-10T07:43:08;13.48;;;6.95;;
70078;SDS011;57451;52.496;13.456;2023-06-10T07:45:39;10.97;;;7.07;;
70078;SDS011;57451;52.496;13.456;2023-06-10T07:48:08;9.88;;;7.20;;
70078;SDS011;57451;52.496;13.456;2023-06-10T07:50:36;12.40;;;6.85;;
70078;SDS011;57451;52.496;13.456;2023-06-10T07:53:03;10.20;;;7.10;;
70078;SDS011;57451;52.496;13.456;2023-06-10T07:55:32;12.27;;;7.32;;
70078;SDS011;57451;52.496;13.456;2023-06-10T07:57:59;9.53;;;6.10;;
70078;SDS011;57451;52.496;13.456;2023-06-10T08:00:27;11.73;;;6.38;;
70078;SDS011;57451;52.496;13.456;2023-06-10T08:02:55;11.00;;;7.10;;
70078;SDS011;57451;52.496;13.456;2023-06-10T08:05:24;11.73;;;7.15;;
70078;SDS011;57451;52.496;13.456;2023-06-10T08:07:52;10.65;;;6.90;;
70078;SDS011;57451;52.496;13.456;2023-06-10T08:10:19;10.03;;;6.97;;
70078;SDS011;57451;52.496;13.456;2023-06-10T08:12:47;11.82;;;6.88;;
70078;SDS011;57451;52.496;13.456;2023-06-10T08:15:15;13.45;;;6.63;;
70078;SDS011;57451;52.496;13.456;2023-06-10T08:17:43;11.30;;;7.32;;
70078;SDS011;57451;52.496;13.456;2023-06-10T08:20:13;12.65;;;7.30;;
70078;SDS011;57451;52.496;13.456;2023-06-10T08:22:41;8.83;;;7.07;;
70078;SDS011;57451;52.496;13.456;2023-06-10T08:25:09;12.75;;;7.70;;
70078;SDS011;57451;52.496;13.456;2023-06-10T08:27:37;12.55;;;7.45;;
70078;SDS011;57451;52.496;13.456;2023-06-10T08:30:06;10.95;;;7.65;;
70078;SDS011;57451;52.496;13.456;2023-06-10T08:32:35;12.68;;;8.02;;
70078;SDS011;57451;52.496;13.456;2023-06-10T08:35:10;11.37;;;7.63;;
70078;SDS011;57451;52.496;13.456;2023-06-10T08:37:38;12.98;;;7.72;;
70078;SDS011;57451;52.496;13.456;2023-06-10T08:40:07;10.07;;;7.82;;
70078;SDS011;57451;52.496;13.456;2023-06-10T08:42:38;10.60;;;7.88;;
70078;SDS011;57451;52.496;13.456;2023-06-10T08:45:08;13.00;;;8.00;;
70078;SDS011;57451;52.496;13.456;2023-06-10T08:47:40;12.33;;;8.07;;
70078;SDS011;57451;52.496;13.456;2023-06-10T08:50:11;10.93;;;7.80;;
70078;SDS011;57451;52.496;13.456;2023-06-10T08:52:41;11.48;;;7.72;;
70078;SDS011;57451;52.496;13.456;2023-06-10T08:55:13;13.90;;;7.60;;
70078;SDS011;57451;52.496;13.456;2023-06-10T08:57:46;11.48;;;7.75;;
70078;SDS011;57451;52.496;13.456;2023-06-10T09:00:15;12.27;;;8.13;;
70078;SDS011;57451;52.496;13.456;2023-06-10T09:02:43;11.25;;;7.38;;
70078;SDS011;57451;52.496;13.456;2023-06-10T09:05:11;12.13;;;8.13;;
70078;SDS011;57451;52.496;13.456;2023-06-10T09:07:40;10.90;;;7.55;;
70078;SDS011;57451;52.496;13.456;2023-06-10T09:10:12;12.63;;;7.45;;
70078;SDS011;57451;52.496;13.456;2023-06-10T09:12:40;11.53;;;6.93;;
70078;SDS011;57451;52.496;13.456;2023-06-10T09:15:08;11.32;;;7.88;;
70078;SDS011;57451;52.496;13.456;2023-06-10T09:17:38;10.55;;;7.55;;
70078;SDS011;57451;52.496;13.456;2023-06-10T09:20:07;15.57;;;7.63;;
70078;SDS011;57451;52.496;13.456;2023-06-10T09:22:37;10.80;;;7.40;;
70078;SDS011;57451;52.496;13.456;2023-06-10T09:25:06;12.88;;;7.30;;
70078;SDS011;57451;52.496;13.456;2023-06-10T09:27:44;10.40;;;7.25;;
70078;SDS011;57451;52.496;13.456;2023-06-10T09:30:23;9.88;;;7.05;;
70078;SDS011;57451;52.496;13.456;2023-06-10T09:32:53;11.13;;;7.10;;
70078;SDS011;57451;52.496;13.456;2023-06-10T09:35:23;10.65;;;6.90;;
70078;SDS011;57451;52.496;13.456;2023-06-10T09:37:53;15.27;;;6.77;;
70078;SDS011;57451;52.496;13.456;2023-06-10T09:40:21;10.52;;;6.63;;
70078;SDS011;57451;52.496;13.456;2023-06-10T09:42:54;10.98;;;6.65;;
70078;SDS011;57451;52.496;13.456;2023-06-10T09:45:22;11.80;;;6.63;;
70078;SDS011;57451;52.496;13.456;2023-06-10T09:47:54;10.40;;;6.80;;
70078;SDS011;57451;52.496;13.456;2023-06-10T09:50:22;9.20;;;6.70;;
70078;SDS011;57451;52.496;13.456;2023-06-10T09:52:50;11.43;;;6.55;;
70078;SDS011;57451;52.496;13.456;2023-06-10T09:55:18;9.05;;;6.88;;
70078;SDS011;57451;52.496;13.456;2023-06-10T09:57:46;12.05;;;7.20;;
70078;SDS011;57451;52.496;13.456;2023-06-10T10:00:18;10.55;;;6.93;;
70078;SDS011;57451;52.496;13.456;2023-06-10T10:02:47;11.90;;;7.10;;
70078;SDS011;57451;52.496;13.456;2023-06-10T10:05:16;9.45;;;6.70;;
70078;SDS011;57451;52.496;13.456;2023-06-10T10:07:45;10.60;;;6.97;;
70078;SDS011;57451;52.496;13.456;2023-06-10T10:10:13;12.73;;;6.90;;
70078;SDS011;57451;52.496;13.456;2023-06-10T10:12:42;9.00;;;7.22;;
70078;SDS011;57451;52.496;13.456;2023-06-10T10:15:12;13.63;;;7.73;;
70078;SDS011;57451;52.496;13.456;2023-06-10T10:17:44;10.10;;;7.13;;
70078;SDS011;57451;52.496;13.456;2023-06-10T10:20:16;9.63;;;7.30;;
70078;SDS011;57451;52.496;13.456;2023-06-10T10:22:47;11.18;;;6.93;;
70078;SDS011;57451;52.496;13.456;2023-06-10T10:25:22;9.95;;;6.72;;
70078;SDS011;57451;52.496;13.456;2023-06-10T10:27:54;9.70;;;6.47;;
70078;SDS011;57451;52.496;13.456;2023-06-10T10:30:25;8.63;;;5.78;;
70078;SDS011;57451;52.496;13.456;2023-06-10T10:32:58;9.82;;;5.57;;
70078;SDS011;57451;52.496;13.456;2023-06-10T10:35:36;11.43;;;6.57;;
70078;SDS011;57451;52.496;13.456;2023-06-10T10:38:05;8.70;;;5.60;;
70078;SDS011;57451;52.496;13.456;2023-06-10T10:40:33;8.00;;;5.03;;
70078;SDS011;57451;52.496;13.456;2023-06-10T10:43:01;8.48;;;5.22;;
70078;SDS011;57451;52.496;13.456;2023-06-10T10:45:30;9.05;;;5.28;;
70078;SDS011;57451;52.496;13.456;2023-06-10T10:48:01;8.15;;;5.00;;
70078;SDS011;57451;52.496;13.456;2023-06-10T10:50:34;8.15;;;4.93;;
70078;SDS011;57451;52.496;13.456;2023-06-10T10:53:03;7.20;;;5.50;;
70078;SDS011;57451;52.496;13.456;2023-06-10T10:55:32;6.18;;;4.80;;
70078;SDS011;57451;52.496;13.456;2023-06-10T10:58:02;6.65;;;5.40;;
70078;SDS011;57451;52.496;13.456;2023-06-10T11:00:31;6.75;;;4.90;;
70078;SDS011;57451;52.496;13.456;2023-06-10T11:03:05;8.55;;;5.55;;
70078;SDS011;57451;52.496;13.456;2023-06-10T11:05:38;7.37;;;4.70;;
70078;SDS011;57451;52.496;13.456;2023-06-10T11:08:07;6.45;;;4.93;;
70078;SDS011;57451;52.496;13.456;2023-06-10T11:10:36;6.85;;;5.07;;
70078;SDS011;57451;52.496;13.456;2023-06-10T11:13:06;12.15;;;5.70;;
70078;SDS011;57451;52.496;13.456;2023-06-10T11:15:38;7.05;;;5.65;;
70078;SDS011;57451;52.496;13.456;2023-06-10T11:18:09;7.50;;;5.20;;
70078;SDS011;57451;52.496;13.456;2023-06-10T11:20:44;7.72;;;4.93;;
70078;SDS011;57451;52.496;13.456;2023-06-10T11:23:25;7.18;;;4.70;;
70078;SDS011;57451;52.496;13.456;2023-06-10T11:26:17;6.93;;;5.20;;
70078;SDS011;57451;52.496;13.456;2023-06-10T11:29:02;7.35;;;5.50;;
70078;SDS011;57451;52.496;13.456;2023-06-10T11:31:38;7.33;;;5.70;;
70078;SDS011;57451;52.496;13.456;2023-06-10T11:34:12;6.60;;;5.60;;
70078;SDS011;57451;52.496;13.456;2023-06-10T11:36:41;8.93;;;6.70;;
70078;SDS011;57451;52.496;13.456;2023-06-10T11:39:11;9.02;;;6.03;;
70078;SDS011;57451;52.496;13.456;2023-06-10T11:41:39;7.78;;;5.82;;
70078;SDS011;57451;52.496;13.456;2023-06-10T11:44:07;7.83;;;5.70;;
70078;SDS011;57451;52.496;13.456;2023-06-10T11:46:36;7.88;;;5.40;;
70078;SDS011;57451;52.496;13.456;2023-06-10T11:49:04;6.93;;;5.60;;
70078;SDS011;57451;52.496;13.456;2023-06-10T11:51:35;7.88;;;5.50;;
70078;SDS011;57451;52.496;13.456;2023-06-10T11:54:03;7.90;;;5.20;;
70078;SDS011;57451;52.496;13.456;2023-06-10T11:56:31;8.40;;;5.40;;
70078;SDS011;57451;52.496;13.456;2023-06-10T11:58:59;10.35;;;5.65;;
70078;SDS011;57451;52.496;13.456;2023-06-10T12:01:31;7.45;;;5.70;;
70078;SDS011;57451;52.496;13.456;2023-06-10T12:04:00;9.38;;;5.45;;
70078;SDS011;57451;52.496;13.456;2023-06-10T12:06:40;6.65;;;5.25;;
70078;SDS011;57451;52.496;13.456;2023-06-10T12:09:18;6.93;;;4.90;;
70078;SDS011;57451;52.496;13.456;2023-06-10T12:11:54;7.35;;;4.78;;
70078;SDS011;57451;52.496;13.456;2023-06-10T12:17:35;6.82;;;5.63;;
70078;SDS011;57451;52.496;13.456;2023-06-10T12:20:05;7.90;;;5.57;;
70078;SDS011;57451;52.496;13.456;2023-06-10T12:22:40;9.23;;;5.60;;
70078;SDS011;57451;52.496;13.456;2023-06-10T12:25:08;13.13;;;6.18;;
70078;SDS011;57451;52.496;13.456;2023-06-10T12:27:38;9.20;;;6.75;;
70078;SDS011;57451;52.496;13.456;2023-06-10T12:30:07;10.25;;;6.78;;
70078;SDS011;57451;52.496;13.456;2023-06-10T12:32:37;9.77;;;7.00;;
70078;SDS011;57451;52.496;13.456;2023-06-10T12:35:07;11.80;;;7.23;;
70078;SDS011;57451;52.496;13.456;2023-06-10T12:37:35;9.98;;;7.97;;
70078;SDS011;57451;52.496;13.456;2023-06-10T12:40:09;9.05;;;7.30;;
70078;SDS011;57451;52.496;13.456;2023-06-10T12:42:37;9.82;;;7.63;;
70078;SDS011;57451;52.496;13.456;2023-06-10T12:45:05;10.10;;;7.53;;
70078;SDS011;57451;52.496;13.456;2023-06-10T12:47:37;10.05;;;7.65;;
70078;SDS011;57451;52.496;13.456;2023-06-10T12:50:06;9.25;;;7.90;;
70078;SDS011;57451;52.496;13.456;2023-06-10T12:52:34;9.95;;;8.10;;
70078;SDS011;57451;52.496;13.456;2023-06-10T12:55:01;9.82;;;8.02;;
70078;SDS011;57451;52.496;13.456;2023-06-10T12:57:32;9.80;;;8.55;;
70078;SDS011;57451;52.496;13.456;2023-06-10T13:00:00;10.60;;;8.10;;
70078;SDS011;57451;52.496;13.456;2023-06-10T13:02:31;10.98;;;8.73;;
70078;SDS011;57451;52.496;13.456;2023-06-10T13:04:59;9.23;;;7.90;;
70078;SDS011;57451;52.496;13.456;2023-06-10T13:07:26;9.35;;;7.90;;
70078;SDS011;57451;52.496;13.456;2023-06-10T13:09:54;11.05;;;8.10;;
70078;SDS011;57451;52.496;13.456;2023-06-10T13:12:21;10.02;;;8.48;;
70078;SDS011;57451;52.496;13.456;2023-06-10T13:15:05;10.23;;;8.40;;
70078;SDS011;57451;52.496;13.456;2023-06-10T13:17:34;11.02;;;7.80;;
70078;SDS011;57451;52.496;13.456;2023-06-10T13:20:02;9.93;;;8.38;;
70078;SDS011;57451;52.496;13.456;2023-06-10T13:22:32;10.88;;;8.32;;
70078;SDS011;57451;52.496;13.456;2023-06-10T13:25:01;15.00;;;8.60;;
70078;SDS011;57451;52.496;13.456;2023-06-10T13:27:30;10.05;;;8.23;;
70078;SDS011;57451;52.496;13.456;2023-06-10T13:29:57;11.13;;;7.50;;
70078;SDS011;57451;52.496;13.456;2023-06-10T13:32:26;9.45;;;8.00;;
70078;SDS011;57451;52.496;13.456;2023-06-10T13:34:54;10.70;;;8.20;;
70078;SDS011;57451;52.496;13.456;2023-06-10T13:37:21;9.30;;;7.78;;
70078;SDS011;57451;52.496;13.456;2023-06-10T13:39:49;10.90;;;8.02;;
70078;SDS011;57451;52.496;13.456;2023-06-10T13:42:17;11.88;;;8.15;;
70078;SDS011;57451;52.496;13.456;2023-06-10T13:44:45;10.68;;;7.80;;
70078;SDS011;57451;52.496;13.456;2023-06-10T13:47:14;10.65;;;7.63;;
70078;SDS011;57451;52.496;13.456;2023-06-10T13:49:43;12.47;;;7.93;;
70078;SDS011;57451;52.496;13.456;2023-06-10T13:52:11;12.30;;;8.45;;
70078;SDS011;57451;52.496;13.456;2023-06-10T13:54:38;10.10;;;8.15;;
70078;SDS011;57451;52.496;13.456;2023-06-10T13:57:05;10.90;;;8.23;;
70078;SDS011;57451;52.496;13.456;2023-06-10T13:59:33;10.02;;;7.18;;
70078;SDS011;57451;52.496;13.456;2023-06-10T14:02:01;10.93;;;7.70;;
70078;SDS011;57451;52.496;13.456;2023-06-10T14:04:28;11.00;;;7.53;;
70078;SDS011;57451;52.496;13.456;2023-06-10T14:06:57;9.15;;;7.63;;
70078;SDS011;57451;52.496;13.456;2023-06-10T14:09:24;9.18;;;7.47;;
70078;SDS011;57451;52.496;13.456;2023-06-10T14:11:52;10.18;;;7.47;;
70078;SDS011;57451;52.496;13.456;2023-06-10T14:14:21;8.83;;;7.40;;
70078;SDS011;57451;52.496;13.456;2023-06-10T14:16:49;8.85;;;7.07;;
70078;SDS011;57451;52.496;13.456;2023-06-10T14:19:17;10.77;;;7.10;;
70078;SDS011;57451;52.496;13.456;2023-06-10T14:21:44;12.18;;;7.68;;
70078;SDS011;57451;52.496;13.456;2023-06-10T14:24:13;8.27;;;7.00;;
70078;SDS011;57451;52.496;13.456;2023-06-10T14:26:41;8.43;;;6.93;;
70078;SDS011;57451;52.496;13.456;2023-06-10T14:29:08;9.60;;;6.80;;
70078;SDS011;57451;52.496;13.456;2023-06-10T14:31:36;9.93;;;6.97;;
70078;SDS011;57451;52.496;13.456;2023-06-10T14:34:04;9.15;;;7.20;;
70078;SDS011;57451;52.496;13.456;2023-06-10T14:36:34;9.23;;;6.47;;
70078;SDS011;57451;52.496;13.456;2023-06-10T14:39:01;9.18;;;6.78;;
70078;SDS011;57451;52.496;13.456;2023-06-10T14:41:30;8.73;;;7.13;;
70078;SDS011;57451;52.496;13.456;2023-06-10T14:43:58;7.78;;;6.55;;